Aviation Digital Data Service (ADDS)

Output produced by METARs form (0641 UTC 24 March 2019)
found at http://www.aviationweather.gov/metar/data/
 
KVER 240635Z AUTO 15007KT 10SM BKN050 OVC070 10/07 A3006 RMK AO2 LTG DSNT S T01000070
KBBG 240635Z AUTO 05006KT 2 1/2SM VCTS RA FEW005 SCT013 BKN024 08/08 A3009 RMK AO2 LTG DSNT SW P0003
KBBG 240520Z 2406/2506 12012KT P6SM VCSH OVC050 
     FM240700 12010KT 5SM -SHRA BR VCTS OVC035CB 
     FM241100 17010KT P6SM OVC025 
     FM242000 22012G18KT P6SM VCTS SCT035CB OVC050 
     TEMPO 2420/2423 3SM -TSRA BR OVC035CB 
     FM250100 26012KT P6SM SCT250
       
KFWB 240635Z AUTO 00000KT 3SM VCTS -RA SCT035 BKN047 OVC065 08/08 A3011 RMK AO2 LTG DSNT SW P0003
KEZZ 240635Z AUTO 15011KT 10SM OVC038 10/07 A3001 RMK AO2 T00970068
KCGI 240553Z AUTO 00000KT 10SM OVC090 11/04 A3018 RMK AO2 SLP221 T01060039 10139 20106 401560028 58014
KCGI 240520Z 2406/2506 09005KT P6SM VCSH OVC090 
     FM241600 19010G19KT P6SM OVC035 
     FM242000 20011G20KT P6SM VCSH BKN030 
     FM242300 19010KT P6SM VCTS OVC035CB 
     FM250300 21009KT P6SM -SHRA OVC027
       
KGLY 240635Z AUTO 18010KT 10SM BKN055 OVC085 10/08 A3003 RMK AO2
KCOU 240554Z AUTO 16016G24KT 10SM BKN070 BKN100 10/06 A3008 RMK AO2 SLP186 T01000061 10133 20094 401720044 58008
KCOU 240520Z 2406/2506 15012G18KT P6SM VCSH OVC050 
     FM241300 16009KT P6SM BKN025 
     FM242000 21006KT P6SM VCTS BKN035CB 
     FM242300 33008KT P6SM SCT030 BKN120
       
KFAM 240556Z AUTO 11003KT 9SM -RA OVC080 08/07 A3018 RMK AO2 RAB18 SLP220 P0002 60011 T00780072 10089 20078 401560006 58014
KTBN 240556Z AUTO 13007KT 10SM FEW042 SCT060 BKN075 BKN100 OVC120 08/08 A3011 RMK AO2 SLP200 60020 T00790076 10092 20077 401550050 57022 $
KHAE 240635Z AUTO 14006KT 10SM BKN080 OVC090 10/05 A3011 RMK AO2
KLRY 240635Z AUTO 16007KT 10SM CLR 09/07 A3003 RMK AO2
KJEF 240553Z AUTO 12009KT 10SM BKN075 OVC100 09/07 A3011 RMK AO2 SLP185 60001 T00940067 10156 20094 401830033 58006
KJLN 240553Z AUTO 14010KT 7SM -RA FEW045 BKN070 OVC080 11/08 A3003 RMK AO2 RAB52 SLP167 P0000 60002 T01060083 10111 20100 401670094 56010
KJLN 240520Z 2406/2506 14008KT P6SM VCSH OVC050 
     FM241000 19012KT P6SM OVC025 
     FM241300 21012KT P6SM OVC015 
     FM241900 26015G22KT P6SM OVC025 
     FM250000 30008KT P6SM SCT250
       
KAIZ 240556Z AUTO 14009KT 10SM FEW060 SCT075 09/07 A3009 RMK AO2 RAE10 SLP189 P0000 60030 T00890072 10106 20083 401830067 58019
KMKC 240554Z VRB04G16KT 10SM CLR 11/06 A3001 RMK AO2 SLP160 60000 T01110061 10150 20111 401610089 56009
KMKC 240520Z 2406/2506 16011KT P6SM OVC028 
     TEMPO 2409/2413 6SM -SHRA BR OVC010 
     FM241300 25008KT P6SM OVC018 
     FM241800 30009KT P6SM OVC025
       
KMCI 240553Z 16013KT 10SM BKN039 09/06 A2999 RMK AO2 SLP156 60000 T00940061 10139 20094 401500083 58012 $
KMCI 240520Z 2406/2506 16012KT P6SM OVC028 
     TEMPO 2409/2413 6SM -SHRA BR OVC008 
     FM241300 25009KT P6SM OVC015 
     FM241800 30010KT P6SM OVC025
       
KTKX 240635Z AUTO 08005KT 8SM OVC110 12/08 A3013 RMK AO2
KIRK 240555Z AUTO 12005KT 10SM BKN048 OVC060 08/06 A3008 RMK AO2 RAE14 SLP192 P0000 60001 T00830056 10117 20078 401560011 58008
KLBO 240635Z AUTO 16014KT 10SM RA BKN001 BKN050 09/07 A3009 RMK AO2 P0001 LTG DSNT SW
KLXT 240553Z AUTO 16014G22KT 10SM FEW065 09/06 A3000 RMK AO2 SLP158 60000 T00940061 10133 20094 401560083 58012
KMAW 240635Z AUTO 07004KT 10SM -DZ CLR 12/04 A3018 RMK AO2
KMHL 240635Z AUTO 15009KT 10SM SCT050 BKN070 10/07 A3005 RMK AO2
KEVU 240635Z AUTO 14011KT 10SM SCT018 SCT026 OVC033 10/06 A2997 RMK AO2
KMYJ 240635Z AUTO 14008KT 10SM OVC080 08/06 A3010 RMK AO2
KHFJ 240635Z AUTO 12013G18KT 10SM SCT048 BKN060 OVC110 08/08 A3005 RMK AO2 LTG DSNT S
KGPH 240635Z AUTO 17006KT 10SM SCT042 10/06 A3002 RMK AO2
KPOF 240553Z AUTO 00000KT 10SM FEW060 BKN095 OVC110 11/06 A3017 RMK AO2 RAE0458 SLP217 P0000 60000 T01110056 10139 20111 401670044 58017
KVIH 240553Z AUTO 14009KT 8SM FEW060 OVC080 08/06 A3012 RMK AO2 SLP199 60012 T00830056 10100 20078 401610039 56023
KSET 240554Z AUTO 12004KT 10SM FEW033 SCT043 SCT095 09/07 A3016 RMK AO2 SLP213 60006 T00890072 10128 20089 401440000 56016 $
KSTJ 240553Z AUTO A3000 RMK AO2 SLPNO 56010 PWINO FZRANO RVRNO $
KSTL 240551Z 23003KT 10SM FEW090 SCT110 OVC150 10/06 A3016 RMK AO2 SLP214 60006 T01000061 10139 20094 401500022 56019
KSTL 240520Z 2406/2512 15010KT P6SM VCSH OVC060 
     TEMPO 2406/2409 6SM -SHRA 
     FM241200 14009KT P6SM BKN030 
     FM242100 19006KT P6SM VCTS BKN035CB 
     FM250000 VRB04KT P6SM VCSH BKN040 
     FM250600 01011KT P6SM OVC020
       
KSUS 240554Z AUTO VRB03KT 10SM CLR 11/06 A3015 RMK AO2 SLP208 60003 T01060061 10144 20094 401501006 55018
KSUS 240520Z 2406/2506 15008KT P6SM VCSH OVC060 
     TEMPO 2406/2409 6SM -SHRA 
     FM241200 14009KT P6SM BKN030 
     FM242100 19006KT P6SM VCTS BKN035CB 
     FM250000 VRB04KT P6SM VCSH BKN040
       
KDMO 240553Z AUTO 16012G23KT 10SM FEW055 SCT100 10/08 A3004 RMK AO2 SLP173 T01000078 10117 20089 401720056 58020
KSIK 240635Z AUTO 00000KT 10SM -RA SCT080 12/04 A3018 RMK AO2
KSGF 240552Z 16021G30KT 4SM RA BR FEW060 OVC075 09/07 A3006 RMK AO2 PK WND 15030/0545 RAB05 SLP177 P0005 60014 T00940072 10100 20089 401560072 58014
KSGF 240520Z 2406/2506 14014G20KT 5SM -SHRA BR VCTS OVC035CB 
     FM240900 16015G22KT P6SM VCSH OVC050 
     FM241200 19012KT P6SM OVC025 
     FM241500 20011KT P6SM BKN025 
     FM241900 24015G22KT P6SM VCTS SCT035CB OVC050 
     TEMPO 2419/2422 3SM -TSRA BR OVC035CB 
     FM250000 30010KT P6SM SCT250
       
KRCM 240635Z AUTO 14008KT 10SM SCT048 SCT055 BKN070 09/06 A3002 RMK AO2
KRAW 240635Z AUTO 14009KT 10SM CLR A3003 RMK AO2 LTG DSNT S
KFYG 240615Z AUTO 13004KT 10SM SCT075 SCT100 BKN120 10/07 A3012 RMK AO2
KUNO 240553Z AUTO 10006KT 6SM -RA BR OVC075 08/07 A3015 RMK AO2 RAB25 SLP207 P0002 60014 T00830067 10100 20083 401390044 58011